Time;durP1;ratioP1;P1;durP2;ratioP2;P2;SDS_P1;SDS_P2;PMS_P1;PMS_P2;Temp;Humidity;BMP_temperature;BMP_pressure;BME280_temperature;BME280_humidity;BME280_pressure;Samples;Min_cycle;Max_cycle;Signal;HPM_P1;HPM_P2
2023/07/27 00:01:25;;;;;;;10.15;2.10;;;;;;;16.44;100.00;99913.47;5072558;28;20029;-72
2023/07/27 00:03:50;;;;;;;20.80;2.40;;;;;;;16.52;100.00;99905.91;5090069;28;20055;-72
2023/07/27 00:06:16;;;;;;;19.33;2.42;;;;;;;16.45;100.00;99909.66;5056561;28;20399;-72
2023/07/27 00:08:41;;;;;;;17.38;2.60;;;;;;;16.36;100.00;99886.81;5073641;28;20076;-72
2023/07/27 00:11:07;;;;;;;12.43;2.63;;;;;;;16.44;100.00;99910.75;5055510;28;20418;-72
2023/07/27 00:13:32;;;;;;;14.13;2.35;;;;;;;16.45;100.00;99912.38;5071731;28;20033;-72
2023/07/27 00:15:57;;;;;;;11.57;2.42;;;;;;;16.36;100.00;99883.28;5072423;28;20043;-72
2023/07/27 00:18:23;;;;;;;18.02;2.65;;;;;;;16.41;100.00;99894.97;5073109;28;20043;-72
2023/07/27 00:20:48;;;;;;;13.52;2.70;;;;;;;16.54;100.00;99888.28;5072006;28;20453;-72
2023/07/27 00:23:13;;;;;;;20.42;2.47;;;;;;;16.40;100.00;99870.81;5072782;28;20388;-72
2023/07/27 00:25:39;;;;;;;14.40;2.05;;;;;;;16.50;100.00;99898.03;5088778;28;20111;-72
2023/07/27 00:28:04;;;;;;;17.48;2.50;;;;;;;16.58;100.00;99899.44;5071565;28;20086;-72
2023/07/27 00:30:30;;;;;;;20.25;2.75;;;;;;;16.53;100.00;99894.00;5071689;28;20364;-72
2023/07/27 00:32:55;;;;;;;15.15;2.45;;;;;;;16.57;100.00;99887.78;5088155;28;20086;-71
2023/07/27 00:35:21;;;;;;;13.60;2.60;;;;;;;16.57;100.00;99878.81;5088623;28;20052;-72
2023/07/27 00:37:46;;;;;;;13.23;1.95;;;;;;;16.47;100.00;99881.47;5071003;28;20035;-72
2023/07/27 00:40:12;;;;;;;14.68;2.40;;;;;;;16.57;100.00;99892.38;5070811;28;20479;-72
2023/07/27 00:42:37;;;;;;;10.88;2.08;;;;;;;16.54;100.00;99892.91;5072750;28;20115;-72
2023/07/27 00:45:03;;;;;;;16.80;2.05;;;;;;;16.58;100.00;99896.72;5070965;28;20120;-71
2023/07/27 00:47:28;;;;;;;16.70;2.70;;;;;;;16.49;100.00;99871.97;5087977;28;20068;-71
2023/07/27 00:49:54;;;;;;;18.13;2.17;;;;;;;16.61;100.00;99882.63;5088727;28;20060;-72
2023/07/27 00:52:19;;;;;;;16.40;2.67;;;;;;;16.41;100.00;99870.53;5055501;28;20032;-72
2023/07/27 00:54:45;;;;;;;21.42;2.80;;;;;;;16.55;100.00;99883.66;5054405;28;20033;-72
2023/07/27 00:57:10;;;;;;;14.98;2.72;;;;;;;16.51;100.00;99888.00;5070797;28;20032;-72
2023/07/27 00:59:38;;;;;;;9.10;2.10;;;;;;;16.46;100.00;99869.78;5070845;28;20430;-73
2023/07/27 01:02:04;;;;;;;16.85;2.42;;;;;;;16.39;100.00;99848.28;5072552;28;20039;-72
2023/07/27 01:04:30;;;;;;;11.88;2.13;;;;;;;16.61;100.00;99878.00;5073440;28;20028;-72
2023/07/27 01:06:55;;;;;;;15.90;2.08;;;;;;;16.73;100.00;99887.88;5073528;28;20030;-71
2023/07/27 01:09:21;;;;;;;16.27;2.15;;;;;;;16.57;100.00;99868.75;5088411;28;20376;-72
2023/07/27 01:11:59;;;;;;;10.38;2.28;;;;;;;16.52;100.00;99862.47;5070643;28;20079;-72
2023/07/27 01:14:48;;;;;;;12.32;2.17;;;;;;;16.67;100.00;99878.88;5074334;28;20029;-72
2023/07/27 01:17:26;;;;;;;15.50;2.53;;;;;;;16.63;100.00;99875.88;5071576;28;20028;-72
2023/07/27 01:20:10;;;;;;;16.67;2.20;;;;;;;16.66;100.00;99874.53;5070241;28;20034;-72
2023/07/27 01:23:11;;;;;;;17.02;2.25;;;;;;;16.82;100.00;99881.72;5071632;28;20020;-72
2023/07/27 01:25:59;;;;;;;20.00;2.58;;;;;;;16.83;100.00;99883.34;5071650;28;20031;-72
2023/07/27 01:28:48;;;;;;;14.40;1.80;;;;;;;16.76;100.00;99879.25;5071220;28;20032;-72
2023/07/27 01:31:22;;;;;;;10.73;2.25;;;;;;;16.76;100.00;99880.06;5070495;28;20112;-72
2023/07/27 01:34:01;;;;;;;13.68;2.45;;;;;;;16.70;100.00;99875.63;5069196;28;20058;-71
2023/07/27 01:36:32;;;;;;;19.08;2.58;;;;;;;16.76;100.00;99874.63;5070426;28;20032;-72
2023/07/27 01:38:59;;;;;;;20.42;2.40;;;;;;;16.73;100.00;99863.44;5069832;28;20035;-71
2023/07/27 01:41:27;;;;;;;15.57;2.25;;;;;;;16.73;100.00;99856.09;5070531;28;20031;-72
2023/07/27 01:43:53;;;;;;;11.10;2.00;;;;;;;16.73;100.00;99849.84;5070452;28;20025;-72
2023/07/27 01:46:20;;;;;;;11.20;1.80;;;;;;;16.83;100.00;99868.97;5070650;28;20058;-72
2023/07/27 01:48:48;;;;;;;14.95;2.85;;;;;;;16.85;100.00;99855.91;5071716;28;20525;-72
2023/07/27 01:51:14;;;;;;;14.10;2.20;;;;;;;16.80;100.00;99869.47;5053763;28;20032;-73
2023/07/27 01:53:42;;;;;;;12.93;1.95;;;;;;;16.85;100.00;99858.63;5072245;28;20054;-72
2023/07/27 01:56:08;;;;;;;10.48;2.08;;;;;;;16.76;100.00;99847.47;5073812;28;20051;-72
2023/07/27 01:58:36;;;;;;;13.70;2.03;;;;;;;16.77;100.00;99843.66;5072134;28;20021;-72
2023/07/27 02:01:03;;;;;;;16.65;2.13;;;;;;;16.86;100.00;99852.94;5072765;28;20101;-72
2023/07/27 02:03:31;;;;;;;14.80;2.20;;;;;;;16.90;100.00;99854.03;5087061;28;20496;-72
2023/07/27 02:05:57;;;;;;;13.52;2.00;;;;;;;16.89;100.00;99852.41;5071166;28;20069;-72
2023/07/27 02:08:22;;;;;;;23.40;2.67;;;;;;;16.77;100.00;99824.63;5087410;28;20021;-73
2023/07/27 02:10:58;;;;;;;14.25;2.67;;;;;;;16.88;100.00;99844.50;5070559;28;20024;-72
2023/07/27 02:13:35;;;;;;;16.58;2.40;;;;;;;16.89;100.00;99852.41;5066940;28;20495;-72
2023/07/27 02:16:41;;;;;;;13.75;2.15;;;;;;;16.85;100.00;99851.31;5072984;28;20059;-72
2023/07/27 02:19:09;;;;;;;13.50;2.30;;;;;;;16.84;100.00;99846.94;5070511;28;20070;-72
2023/07/27 02:21:35;;;;;;;17.83;2.75;;;;;;;16.81;100.00;99839.31;5069132;28;20035;-72
2023/07/27 02:24:01;;;;;;;19.45;2.78;;;;;;;16.91;100.00;99841.28;5069786;28;20028;-72
2023/07/27 02:26:27;;;;;;;20.75;3.63;;;;;;;16.79;100.00;99825.19;5070445;28;20101;-72
2023/07/27 02:28:53;;;;;;;18.63;3.15;;;;;;;16.95;100.00;99852.44;5071333;28;20071;-73
2023/07/27 02:31:19;;;;;;;14.27;2.63;;;;;;;16.78;100.00;99828.16;5072007;28;20475;-73
2023/07/27 02:33:44;;;;;;;15.60;2.75;;;;;;;17.00;100.00;99844.31;5075694;28;20035;-72
2023/07/27 02:36:10;;;;;;;16.48;3.03;;;;;;;16.96;100.00;99835.06;5077130;28;20033;-72
2023/07/27 02:38:37;;;;;;;16.85;3.50;;;;;;;17.02;100.00;99855.72;5055841;28;20044;-73
2023/07/27 02:41:02;;;;;;;21.02;3.58;;;;;;;17.01;100.00;99851.38;5075299;28;20043;-72
2023/07/27 02:43:27;;;;;;;21.77;3.33;;;;;;;16.93;100.00;99847.28;5069944;28;20040;-72
2023/07/27 02:45:59;;;;;;;15.32;2.72;;;;;;;17.03;100.00;99852.75;5071226;28;20043;-72
2023/07/27 02:48:26;;;;;;;14.25;2.88;;;;;;;17.03;100.00;99851.94;5086743;28;20032;-72
2023/07/27 02:50:51;;;;;;;14.65;3.15;;;;;;;16.99;100.00;99845.41;5070277;28;20029;-73
2023/07/27 02:53:17;;;;;;;13.25;2.15;;;;;;;17.03;100.00;99855.47;5071302;28;20553;-72
2023/07/27 02:55:42;;;;;;;24.63;3.67;;;;;;;17.13;100.00;99860.94;5069614;28;20040;-72
2023/07/27 02:58:08;;;;;;;18.48;3.40;;;;;;;17.11;100.00;99857.66;5069298;28;20032;-72
2023/07/27 03:00:34;;;;;;;20.13;3.13;;;;;;;17.17;100.00;99863.13;5069536;28;20082;-73
2023/07/27 03:03:00;;;;;;;22.27;3.35;;;;;;;17.14;100.00;99857.13;5085576;28;20041;-72
2023/07/27 03:05:27;;;;;;;17.80;3.13;;;;;;;17.14;100.00;99848.97;5068834;28;20056;-72
2023/07/27 03:07:53;;;;;;;18.25;3.15;;;;;;;17.14;100.00;99861.75;5070321;28;20028;-72
2023/07/27 03:10:19;;;;;;;19.67;3.28;;;;;;;17.13;100.00;99860.13;5052341;28;20107;-72
2023/07/27 03:12:44;;;;;;;19.83;3.55;;;;;;;17.12;100.00;99863.94;5086403;28;20033;-72
2023/07/27 03:15:09;;;;;;;23.85;4.07;;;;;;;16.93;100.00;99835.59;5071368;28;20024;-73
2023/07/27 03:17:35;;;;;;;20.25;3.70;;;;;;;17.04;100.00;99846.22;5069425;28;20040;-72
2023/07/27 03:20:00;;;;;;;19.95;3.55;;;;;;;17.14;100.00;99842.72;5069155;28;20032;-71
2023/07/27 03:22:27;;;;;;;17.15;3.28;;;;;;;17.16;100.00;99861.50;5072664;28;20048;-72
2023/07/27 03:24:52;;;;;;;20.35;2.78;;;;;;;17.20;100.00;99866.13;5094115;28;20032;-73
2023/07/27 03:27:17;;;;;;;13.30;3.15;;;;;;;17.25;100.00;99871.59;5090055;28;20028;-72
2023/07/27 03:29:43;;;;;;;19.77;2.90;;;;;;;17.24;100.00;99872.66;5072835;28;20108;-72
2023/07/27 03:32:08;;;;;;;16.42;3.00;;;;;;;17.31;100.00;99877.88;5089854;28;20048;-72
2023/07/27 03:34:34;;;;;;;13.60;2.90;;;;;;;17.24;100.00;99878.09;5072427;28;20060;-72
2023/07/27 03:36:59;;;;;;;17.83;2.55;;;;;;;17.19;100.00;99869.94;5089154;28;20551;-72
2023/07/27 03:39:25;;;;;;;12.52;2.63;;;;;;;17.30;100.00;99885.22;5072746;28;20033;-72
2023/07/27 03:41:50;;;;;;;10.50;2.30;;;;;;;17.21;100.00;99875.91;5072223;28;20032;-73
2023/07/27 03:44:15;;;;;;;14.88;2.58;;;;;;;17.12;100.00;99872.91;5089638;28;20055;-73
2023/07/27 03:46:41;;;;;;;17.83;2.70;;;;;;;17.10;100.00;99885.13;5072220;28;20032;-72
2023/07/27 03:49:08;;;;;;;13.18;3.10;;;;;;;17.08;100.00;99879.13;5074261;28;20102;-73
2023/07/27 03:51:34;;;;;;;16.48;3.15;;;;;;;17.16;100.00;99888.69;5090373;28;20021;-73
2023/07/27 03:53:59;;;;;;;21.42;4.05;;;;;;;17.21;100.00;99888.69;5090004;28;20029;-73
2023/07/27 03:56:25;;;;;;;19.88;3.25;;;;;;;17.26;100.00;99897.72;5055977;28;20475;-73
2023/07/27 03:58:51;;;;;;;22.35;3.92;;;;;;;17.19;100.00;99878.09;5073623;28;20031;-73
2023/07/27 04:01:16;;;;;;;18.08;3.47;;;;;;;17.30;100.00;99881.69;5072172;28;20086;-72
2023/07/27 04:03:42;;;;;;;27.45;3.75;;;;;;;17.27;100.00;99879.47;5055469;28;20429;-72
2023/07/27 04:06:07;;;;;;;23.52;3.53;;;;;;;17.37;100.00;99880.34;5060800;28;20032;-73
2023/07/27 04:08:32;;;;;;;23.75;4.25;;;;;;;17.42;100.00;99892.31;5074353;28;20036;-73
2023/07/27 04:10:58;;;;;;;24.55;3.45;;;;;;;17.44;100.00;99895.59;5072347;28;20035;-72
2023/07/27 04:13:23;;;;;;;19.50;3.65;;;;;;;17.33;100.00;99867.56;5071498;28;20174;-73
2023/07/27 04:15:48;;;;;;;19.20;3.72;;;;;;;17.47;100.00;99893.16;5071779;28;20143;-73
2023/07/27 04:18:14;;;;;;;15.15;2.80;;;;;;;17.41;100.00;99885.25;5055238;28;20033;-73
2023/07/27 04:20:39;;;;;;;16.95;3.20;;;;;;;17.52;100.00;99893.19;5071490;28;20040;-73
2023/07/27 04:23:05;;;;;;;20.90;3.25;;;;;;;17.63;100.00;99893.22;5071629;28;20040;-73
2023/07/27 04:25:30;;;;;;;15.45;2.90;;;;;;;17.75;100.00;99897.31;5088222;28;20030;-73
2023/07/27 04:27:56;;;;;;;18.40;3.05;;;;;;;17.79;100.00;99898.44;5071430;28;20127;-73
2023/07/27 04:30:21;;;;;;;11.60;2.50;;;;;;;18.02;100.00;99894.41;5071915;28;20051;-73
2023/07/27 04:32:47;;;;;;;15.40;2.38;;;;;;;19.50;100.00;99887.84;5071992;28;20060;-73
2023/07/27 04:35:12;;;;;;;12.55;1.80;;;;;;;20.35;100.00;99871.19;5070825;28;20033;-73
2023/07/27 04:37:38;;;;;;;8.00;2.00;;;;;;;21.37;97.35;99880.28;5071454;28;20024;-73
2023/07/27 04:40:04;;;;;;;4.88;1.60;;;;;;;21.87;93.11;99879.88;5071034;28;20036;-73
2023/07/27 04:42:29;;;;;;;11.38;1.75;;;;;;;21.62;93.37;99881.84;5054731;28;20095;-73
2023/07/27 04:44:55;;;;;;;6.63;1.40;;;;;;;21.99;91.55;99881.06;5072815;28;20391;-73
2023/07/27 04:47:21;;;;;;;6.80;1.40;;;;;;;21.46;92.73;99851.16;5057011;28;20029;-73
2023/07/27 04:49:46;;;;;;;4.63;1.40;;;;;;;22.33;88.46;99873.69;5076371;28;20040;-73
2023/07/27 04:52:12;;;;;;;7.22;1.27;;;;;;;21.25;94.69;99877.13;5072772;28;20029;-72
2023/07/27 04:54:37;;;;;;;7.13;1.35;;;;;;;21.84;90.55;99886.75;5074711;28;20426;-73
2023/07/27 04:57:03;;;;;;;6.25;1.15;;;;;;;22.10;88.66;99889.13;5071022;28;20105;-74
2023/07/27 04:59:28;;;;;;;4.50;1.10;;;;;;;22.49;85.60;99889.56;5071356;28;20423;-73
2023/07/27 05:01:54;;;;;;;5.20;1.30;;;;;;;21.53;91.04;99889.94;5087856;28;20454;-74
2023/07/27 05:04:19;;;;;;;5.60;1.00;;;;;;;20.56;97.62;99892.91;5071120;28;20032;-74
2023/07/27 05:06:44;;;;;;;5.65;1.40;;;;;;;20.11;100.00;99889.44;5070144;28;20032;-73
2023/07/27 05:09:10;;;;;;;8.57;1.85;;;;;;;19.87;100.00;99886.63;5072412;28;20033;-74
2023/07/27 05:11:35;;;;;;;4.18;1.10;;;;;;;19.79;100.00;99900.84;5071774;28;20537;-74
2023/07/27 05:14:01;;;;;;;9.27;1.63;;;;;;;19.55;100.00;99901.50;5087692;28;20040;-74
2023/07/27 05:16:26;;;;;;;6.72;1.45;;;;;;;19.43;100.00;99903.72;5087223;28;20394;-73
2023/07/27 05:18:52;;;;;;;9.60;1.42;;;;;;;20.09;99.83;99903.38;5070594;28;20376;-73
2023/07/27 05:21:18;;;;;;;9.38;1.60;;;;;;;21.00;93.31;99900.94;5072206;28;20028;-73
2023/07/27 05:23:43;;;;;;;6.15;1.58;;;;;;;20.26;97.26;99902.97;5070946;28;20502;-74
2023/07/27 05:26:09;;;;;;;7.75;1.10;;;;;;;20.01;99.28;99895.78;5070757;28;20131;-73
2023/07/27 05:28:34;;;;;;;5.90;1.20;;;;;;;19.85;99.93;99897.81;5071945;28;20029;-73
2023/07/27 05:31:00;;;;;;;7.22;1.25;;;;;;;19.69;100.00;99899.81;5054317;28;20020;-74
2023/07/27 05:33:25;;;;;;;8.70;1.23;;;;;;;19.46;100.00;99894.97;5071651;28;20119;-73
2023/07/27 05:35:51;;;;;;;6.43;1.38;;;;;;;19.29;100.00;99894.53;5053658;28;20039;-73
2023/07/27 05:38:20;;;;;;;2.85;1.30;;;;;;;19.76;99.95;99901.41;5054272;28;20123;-73
2023/07/27 05:40:45;;;;;;;5.80;1.15;;;;;;;20.55;94.56;99892.09;5070917;28;20414;-73
2023/07/27 05:43:11;;;;;;;2.85;0.88;;;;;;;20.62;93.08;99894.47;5072061;28;20055;-73
2023/07/27 05:45:38;;;;;;;3.13;1.08;;;;;;;20.36;94.32;99904.78;5088168;28;20400;-73
2023/07/27 05:48:05;;;;;;;4.13;0.80;;;;;;;20.31;95.73;99913.06;5071686;28;20017;-73
2023/07/27 05:50:31;;;;;;;4.25;0.80;;;;;;;20.31;96.79;99902.13;5072978;28;20044;-73
2023/07/27 05:52:57;;;;;;;4.05;0.80;;;;;;;20.04;96.86;99911.59;5071743;28;20390;-72
2023/07/27 05:55:22;;;;;;;4.13;1.00;;;;;;;19.82;97.03;99913.94;5087317;28;20032;-73
2023/07/27 05:57:48;;;;;;;6.30;1.00;;;;;;;19.61;97.34;99911.28;5071126;28;20032;-73
2023/07/27 06:00:13;;;;;;;5.57;0.90;;;;;;;19.70;97.35;99919.72;5069708;28;20063;-73
2023/07/27 06:02:39;;;;;;;3.28;0.80;;;;;;;19.98;96.35;99923.66;5069869;28;20051;-73
2023/07/27 06:05:05;;;;;;;2.92;0.73;;;;;;;20.30;94.74;99927.81;5069580;28;20403;-73
2023/07/27 06:07:31;;;;;;;3.28;0.80;;;;;;;20.52;92.99;99927.38;5069675;28;20115;-73
2023/07/27 06:09:57;;;;;;;2.85;0.80;;;;;;;20.60;92.38;99924.84;5069344;28;20235;-73
2023/07/27 06:12:22;;;;;;;2.28;0.50;;;;;;;20.64;90.33;99901.31;5069180;28;20035;-73
2023/07/27 06:14:48;;;;;;;4.80;0.80;;;;;;;20.64;89.39;99928.63;5069303;28;20041;-73
2023/07/27 06:17:13;;;;;;;3.53;0.93;;;;;;;20.70;89.09;99925.88;5069174;28;20440;-73
2023/07/27 06:19:39;;;;;;;3.03;0.73;;;;;;;20.42;90.23;99926.31;5069843;28;20035;-74
2023/07/27 06:22:04;;;;;;;2.63;0.80;;;;;;;20.75;89.25;99934.00;5086615;28;20033;-73
2023/07/27 06:24:30;;;;;;;4.15;0.80;;;;;;;20.93;88.15;99927.81;5054097;28;20051;-73
2023/07/27 06:26:56;;;;;;;3.67;0.70;;;;;;;21.10;86.77;99936.38;5055062;28;20036;-74
2023/07/27 06:29:22;;;;;;;3.17;0.68;;;;;;;21.05;87.72;99938.34;5071103;28;20387;-74
2023/07/27 06:31:48;;;;;;;4.78;1.17;;;;;;;20.75;89.22;99939.47;5069895;28;20555;-75
2023/07/27 06:34:14;;;;;;;2.10;0.70;;;;;;;20.44;89.53;99936.19;5069828;28;20147;-74
2023/07/27 06:36:39;;;;;;;3.30;0.80;;;;;;;20.09;90.72;99952.53;5070096;28;20032;-73
2023/07/27 06:39:05;;;;;;;3.30;0.90;;;;;;;19.75;91.95;99925.16;5069896;28;20058;-75
2023/07/27 06:41:30;;;;;;;5.13;0.93;;;;;;;19.60;93.03;99947.88;5070900;28;20024;-74
2023/07/27 06:43:56;;;;;;;4.03;1.00;;;;;;;19.52;94.34;99953.09;5070538;28;20034;-74
2023/07/27 06:46:21;;;;;;;5.03;1.00;;;;;;;19.48;94.86;99944.63;5070728;28;20086;-73
2023/07/27 06:48:47;;;;;;;2.33;0.82;;;;;;;19.83;94.24;99935.47;5069779;28;20045;-73
2023/07/27 06:51:13;;;;;;;8.57;1.10;;;;;;;20.09;93.55;99930.69;5086788;28;20025;-74
2023/07/27 06:53:39;;;;;;;3.75;0.93;;;;;;;20.24;93.58;99934.41;5070841;28;20067;-74
2023/07/27 06:56:04;;;;;;;4.50;0.90;;;;;;;20.51;93.18;99953.09;5069721;28;20107;-74
2023/07/27 06:58:31;;;;;;;4.65;0.90;;;;;;;20.44;93.32;99947.09;5054557;28;20025;-74
2023/07/27 07:00:56;;;;;;;3.70;1.08;;;;;;;20.02;93.00;99949.28;5073517;28;20029;-74
2023/07/27 07:03:22;;;;;;;4.88;1.08;;;;;;;20.05;91.31;99934.28;5074226;28;20387;-74
2023/07/27 07:05:48;;;;;;;3.78;1.20;;;;;;;20.22;90.44;99951.06;5074594;28;20085;-75
2023/07/27 07:08:13;;;;;;;4.68;1.20;;;;;;;20.16;90.19;99950.31;5056756;28;20480;-74
2023/07/27 07:10:39;;;;;;;3.50;1.02;;;;;;;20.34;88.47;99956.19;5074402;28;20024;-73
2023/07/27 07:13:04;;;;;;;4.57;0.93;;;;;;;20.36;89.24;99964.91;5074565;28;20074;-73
2023/07/27 07:15:30;;;;;;;5.38;1.17;;;;;;;20.33;89.26;99962.75;5089870;28;20044;-73
2023/07/27 07:17:55;;;;;;;3.47;1.08;;;;;;;20.21;89.61;99965.84;5074564;28;20077;-74
2023/07/27 07:20:21;;;;;;;5.72;1.10;;;;;;;20.62;88.15;99958.16;5072740;28;20039;-74
2023/07/27 07:22:46;;;;;;;3.45;0.85;;;;;;;20.48;88.57;99959.91;5074537;28;20036;-73
2023/07/27 07:25:11;;;;;;;6.85;1.00;;;;;;;20.40;89.19;99966.00;5074650;28;20082;-74
2023/07/27 07:27:37;;;;;;;4.25;0.93;;;;;;;20.53;88.59;99954.44;5074163;28;20040;-73
2023/07/27 07:30:04;;;;;;;4.38;1.17;;;;;;;20.52;89.02;99963.72;5073019;28;20032;-74
2023/07/27 07:32:31;;;;;;;6.13;1.30;;;;;;;20.64;88.74;99966.91;5073661;28;20025;-74
2023/07/27 07:34:57;;;;;;;3.90;0.82;;;;;;;20.82;87.57;99972.75;5073475;28;20032;-73
2023/07/27 07:37:22;;;;;;;2.42;0.90;;;;;;;20.86;86.80;99951.94;5072680;28;20039;-74
2023/07/27 07:39:48;;;;;;;4.63;0.90;;;;;;;21.20;84.58;99973.75;5075745;28;20032;-75
2023/07/27 07:42:13;;;;;;;3.90;0.90;;;;;;;21.46;83.65;99968.84;5076515;28;20040;-74
2023/07/27 07:44:39;;;;;;;3.65;0.93;;;;;;;21.09;82.36;99958.53;5093458;28;20039;-75
2023/07/27 07:47:05;;;;;;;5.47;0.80;;;;;;;21.18;81.57;99970.50;5092961;28;20032;-75
2023/07/27 07:49:30;;;;;;;2.80;0.88;;;;;;;21.16;81.19;99978.19;5075643;28;20139;-76
2023/07/27 07:51:55;;;;;;;3.40;0.80;;;;;;;20.94;82.47;99984.16;5092553;28;20068;-75
2023/07/27 07:54:21;;;;;;;4.70;1.00;;;;;;;20.93;82.09;99973.50;5093891;28;20046;-74
2023/07/27 07:56:47;;;;;;;5.10;1.10;;;;;;;20.92;82.89;99980.06;5093910;28;20052;-74
2023/07/27 07:59:16;;;;;;;4.68;1.15;;;;;;;20.96;82.76;99973.75;5093695;28;20024;-75
2023/07/27 08:01:42;;;;;;;2.92;0.80;;;;;;;20.73;82.57;99980.78;5075060;28;20036;-76
2023/07/27 08:04:08;;;;;;;3.42;0.88;;;;;;;20.59;82.80;99982.53;5076153;28;20175;-75
2023/07/27 08:06:34;;;;;;;6.63;0.95;;;;;;;20.55;82.62;99976.00;5092604;28;20426;-75
2023/07/27 08:08:59;;;;;;;5.30;1.20;;;;;;;20.62;83.09;99974.56;5074789;28;20095;-74
2023/07/27 08:11:25;;;;;;;2.15;0.77;;;;;;;20.67;83.06;99975.66;5064508;28;20029;-74
2023/07/27 08:13:50;;;;;;;5.07;0.70;;;;;;;20.72;83.82;99989.25;5071988;28;20051;-75
2023/07/27 08:16:16;;;;;;;2.15;0.82;;;;;;;20.69;83.71;99974.25;5071857;28;20540;-76
2023/07/27 08:18:41;;;;;;;3.80;0.70;;;;;;;20.43;84.71;99987.28;5088966;28;20037;-75
2023/07/27 08:21:08;;;;;;;4.72;0.80;;;;;;;20.27;84.03;99977.56;5089110;28;20055;-75
2023/07/27 08:23:34;;;;;;;4.30;0.77;;;;;;;20.60;83.77;99985.00;5073409;28;20025;-75
2023/07/27 08:26:00;;;;;;;7.75;1.10;;;;;;;20.46;84.45;99992.16;5088996;28;20094;-75
2023/07/27 08:28:27;;;;;;;2.08;0.70;;;;;;;20.44;84.26;99996.28;5088013;28;20024;-75
2023/07/27 08:30:53;;;;;;;2.25;0.80;;;;;;;20.36;84.30;99975.84;5071335;28;20020;-76
2023/07/27 08:33:19;;;;;;;1.95;0.80;;;;;;;20.33;84.50;99993.63;5071292;28;20024;-77
2023/07/27 08:35:46;;;;;;;1.88;0.65;;;;;;;20.17;85.10;99995.66;5086374;28;20116;-76
2023/07/27 08:38:11;;;;;;;4.80;0.70;;;;;;;19.90;86.23;99997.97;5088561;28;20044;-76
2023/07/27 08:40:37;;;;;;;3.53;0.90;;;;;;;19.78;87.72;99997.50;5071910;28;20029;-76
2023/07/27 08:43:04;;;;;;;3.08;0.70;;;;;;;19.91;87.37;100005.88;5072492;28;20032;-76
2023/07/27 08:45:30;;;;;;;14.52;8.95;;;;;;;19.99;87.56;99999.00;5071629;28;20025;-76
2023/07/27 08:47:57;;;;;;;3.10;1.10;;;;;;;19.91;88.27;100018.72;5086996;28;20428;-76
2023/07/27 08:50:22;;;;;;;2.58;0.75;;;;;;;20.10;87.98;100008.00;5071493;28;20056;-75
2023/07/27 08:52:48;;;;;;;1.75;0.60;;;;;;;20.38;87.45;99999.03;5090151;28;20403;-76
2023/07/27 08:55:15;;;;;;;3.08;0.80;;;;;;;20.41;87.56;100008.59;5089633;28;20088;-76
2023/07/27 08:57:41;;;;;;;2.38;0.90;;;;;;;20.31;87.58;100000.47;5106765;28;20031;-76
2023/07/27 09:00:09;;;;;;;3.03;0.85;;;;;;;20.69;85.72;99996.09;5106676;28;20032;-76
2023/07/27 09:02:35;;;;;;;2.38;0.95;;;;;;;20.71;84.96;100009.50;5092468;28;20111;-76
2023/07/27 09:05:00;;;;;;;3.08;0.63;;;;;;;20.85;83.44;99996.78;5092001;28;20103;-76
2023/07/27 09:07:26;;;;;;;3.17;0.73;;;;;;;21.19;82.43;100015.06;5091860;28;20517;-76
2023/07/27 09:09:52;;;;;;;3.28;0.80;;;;;;;21.12;82.59;100015.41;5074124;28;20070;-76
2023/07/27 09:12:19;;;;;;;4.78;0.63;;;;;;;20.88;82.86;100018.09;5091344;28;20099;-75
2023/07/27 09:14:44;;;;;;;2.55;0.70;;;;;;;21.01;83.01;100013.88;5092496;28;20099;-76
2023/07/27 09:17:12;;;;;;;3.83;0.77;;;;;;;21.10;82.63;100015.72;5074543;28;20082;-75
2023/07/27 09:19:40;;;;;;;2.55;0.73;;;;;;;20.88;83.46;100016.19;5091985;28;20024;-76
2023/07/27 09:22:07;;;;;;;2.95;0.52;;;;;;;20.65;83.08;100017.72;5091755;28;20039;-76
2023/07/27 09:24:33;;;;;;;1.05;0.40;;;;;;;20.90;81.18;100021.38;5091160;28;20028;-75
2023/07/27 09:26:59;;;;;;;2.40;0.70;;;;;;;21.22;80.59;100019.97;5090675;28;20051;-76
2023/07/27 09:29:25;;;;;;;2.60;0.73;;;;;;;21.31;79.38;100019.06;5073840;28;20110;-75
2023/07/27 09:31:54;;;;;;;3.97;0.82;;;;;;;21.24;78.27;100023.25;5091967;28;20166;-76
2023/07/27 09:34:20;;;;;;;2.33;0.57;;;;;;;21.24;76.85;100029.53;5094052;28;20538;-76
2023/07/27 09:36:47;;;;;;;2.13;0.50;;;;;;;21.23;76.93;100022.44;5092540;28;20047;-76
2023/07/27 09:39:14;;;;;;;2.38;0.52;;;;;;;21.47;75.50;100017.00;5091584;28;20028;-75
2023/07/27 09:41:45;;;;;;;2.92;0.70;;;;;;;21.33;75.92;100027.00;5074552;28;20032;-75
2023/07/27 09:44:16;;;;;;;2.78;0.57;;;;;;;21.49;76.40;100025.75;5092065;28;20024;-75
2023/07/27 09:46:42;;;;;;;2.10;0.80;;;;;;;21.66;74.80;100035.44;5090519;28;20044;-76
2023/07/27 09:49:08;;;;;;;1.58;0.40;;;;;;;21.58;74.22;100034.13;5090325;28;20048;-75
2023/07/27 09:51:34;;;;;;;4.93;0.60;;;;;;;21.58;74.92;100029.47;5090105;28;20368;-76
2023/07/27 09:54:00;;;;;;;3.20;0.55;;;;;;;21.56;75.74;100034.44;5090297;28;20043;-75
2023/07/27 09:56:27;;;;;;;2.63;0.60;;;;;;;21.61;75.66;100025.31;5091305;28;20028;-76
2023/07/27 09:58:53;;;;;;;3.40;0.50;;;;;;;21.57;75.51;100041.53;5091416;28;20043;-75
2023/07/27 10:01:19;;;;;;;2.92;0.60;;;;;;;21.44;76.32;100038.66;5090856;28;20032;-75
2023/07/27 10:03:46;;;;;;;2.15;0.57;;;;;;;21.36;77.01;100042.88;5090519;28;20402;-75
2023/07/27 10:06:14;;;;;;;1.67;0.50;;;;;;;21.41;77.11;100042.78;5073064;28;20032;-76
2023/07/27 10:08:41;;;;;;;2.42;0.55;;;;;;;21.45;76.34;100035.63;5089957;28;20036;-75
2023/07/27 10:11:06;;;;;;;1.50;0.50;;;;;;;21.55;75.89;100046.47;5089941;28;20445;-75
2023/07/27 10:13:37;;;;;;;2.55;0.47;;;;;;;21.56;75.29;100030.88;5073585;28;20115;-75
2023/07/27 10:16:07;;;;;;;1.98;0.50;;;;;;;21.84;73.70;100047.53;5090808;28;20038;-75
2023/07/27 10:18:42;;;;;;;2.20;0.50;;;;;;;21.72;73.93;100034.22;5072974;28;20126;-75
2023/07/27 10:21:19;;;;;;;2.20;0.73;;;;;;;21.45;75.41;100041.09;5090837;28;20039;-75
2023/07/27 10:24:00;;;;;;;1.77;0.40;;;;;;;21.55;74.86;100051.13;5091672;28;20032;-75
2023/07/27 10:26:46;;;;;;;1.85;0.60;;;;;;;21.67;73.35;100053.47;5090416;28;20099;-75
2023/07/27 10:29:24;;;;;;;2.15;0.60;;;;;;;21.76;72.57;100030.63;5089823;28;20032;-74
2023/07/27 10:32:06;;;;;;;1.45;0.50;;;;;;;21.42;73.09;100058.09;5092790;28;20069;-74
2023/07/27 10:34:35;;;;;;;1.83;0.50;;;;;;;21.52;72.00;100060.75;5093374;28;20031;-74
2023/07/27 10:37:02;;;;;;;1.65;0.35;;;;;;;21.81;71.80;100054.41;5077644;28;20039;-75
2023/07/27 10:39:42;;;;;;;2.13;0.60;;;;;;;21.64;70.94;100046.66;5094332;28;20020;-76
2023/07/27 10:42:10;;;;;;;1.73;0.40;;;;;;;21.97;70.89;100063.25;5092593;28;20032;-74
2023/07/27 10:44:51;;;;;;;2.78;0.60;;;;;;;21.83;73.37;100065.06;5093813;28;20023;-74
2023/07/27 10:47:38;;;;;;;3.72;0.52;;;;;;;21.60;73.22;100063.97;5094806;28;20024;-75
2023/07/27 10:50:05;;;;;;;1.65;0.50;;;;;;;21.65;72.56;100063.88;5077329;28;20151;-75
2023/07/27 10:52:39;;;;;;;0.88;0.30;;;;;;;21.52;73.70;100060.75;5094128;28;20020;-74
2023/07/27 10:55:06;;;;;;;1.42;0.40;;;;;;;21.82;73.01;100064.25;5094169;28;20032;-74
2023/07/27 10:57:33;;;;;;;1.67;0.50;;;;;;;21.61;73.05;100066.41;5092336;28;20498;-75
2023/07/27 11:00:00;;;;;;;1.38;0.50;;;;;;;21.72;72.52;100065.19;5075297;28;20040;-74
2023/07/27 11:02:29;;;;;;;3.25;0.68;;;;;;;21.71;71.96;100060.81;5092507;28;20106;-74
2023/07/27 11:04:58;;;;;;;3.47;0.60;;;;;;;21.58;71.75;100051.38;5092751;28;20059;-75
2023/07/27 11:07:46;;;;;;;2.78;0.60;;;;;;;21.72;72.40;100083.53;5093991;28;20114;-76
2023/07/27 11:10:14;;;;;;;2.20;0.50;;;;;;;21.53;71.92;100054.16;5092261;28;20028;-74
2023/07/27 11:12:50;;;;;;;3.50;0.52;;;;;;;21.66;71.85;100068.28;5091464;28;20107;-75
2023/07/27 11:15:17;;;;;;;1.88;0.60;;;;;;;21.77;71.17;100073.34;5093195;28;20616;-75
2023/07/27 11:17:44;;;;;;;3.05;0.47;;;;;;;21.58;70.80;100059.56;5098765;28;20129;-74
2023/07/27 11:20:11;;;;;;;1.38;0.50;;;;;;;21.74;71.09;100070.38;5095914;28;20105;-75
2023/07/27 11:22:37;;;;;;;1.02;0.30;;;;;;;21.71;71.17;100065.47;5092989;28;20086;-75
2023/07/27 11:25:04;;;;;;;1.23;0.50;;;;;;;21.90;71.45;100068.28;5076220;28;20478;-74